sensor_id;sensor_type;location;lat;lon;timestamp;temperature;humidity
69895;DHT22;57172;52.034;5.090;2023-11-21T00:02:21;8.50;97.80
69895;DHT22;57172;52.034;5.090;2023-11-21T00:04:49;8.50;97.70
69895;DHT22;57172;52.034;5.090;2023-11-21T00:07:16;8.50;97.60
69895;DHT22;57172;52.034;5.090;2023-11-21T00:09:43;8.50;97.50
69895;DHT22;57172;52.034;5.090;2023-11-21T00:12:10;8.50;97.50
69895;DHT22;57172;52.034;5.090;2023-11-21T00:14:37;8.40;97.40
69895;DHT22;57172;52.034;5.090;2023-11-21T00:17:06;8.40;97.60
69895;DHT22;57172;52.034;5.090;2023-11-21T00:19:33;8.40;97.80
69895;DHT22;57172;52.034;5.090;2023-11-21T00:22:01;8.30;97.90
69895;DHT22;57172;52.034;5.090;2023-11-21T00:24:28;8.30;98.00
69895;DHT22;57172;52.034;5.090;2023-11-21T00:26:55;8.30;98.00
69895;DHT22;57172;52.034;5.090;2023-11-21T00:29:22;8.30;98.10
69895;DHT22;57172;52.034;5.090;2023-11-21T00:31:50;8.30;98.20
69895;DHT22;57172;52.034;5.090;2023-11-21T00:34:17;8.30;98.10
69895;DHT22;57172;52.034;5.090;2023-11-21T00:36:44;8.30;98.00
69895;DHT22;57172;52.034;5.090;2023-11-21T00:39:11;8.30;98.00
69895;DHT22;57172;52.034;5.090;2023-11-21T00:41:39;8.30;98.00
69895;DHT22;57172;52.034;5.090;2023-11-21T00:44:06;8.30;98.10
69895;DHT22;57172;52.034;5.090;2023-11-21T00:46:33;8.30;98.10
69895;DHT22;57172;52.034;5.090;2023-11-21T00:49:00;8.30;98.10
69895;DHT22;57172;52.034;5.090;2023-11-21T00:51:27;8.30;98.20
69895;DHT22;57172;52.034;5.090;2023-11-21T00:53:54;8.20;98.10
69895;DHT22;57172;52.034;5.090;2023-11-21T00:56:23;8.20;98.10
69895;DHT22;57172;52.034;5.090;2023-11-21T00:58:50;8.20;98.00
69895;DHT22;57172;52.034;5.090;2023-11-21T01:01:19;8.20;97.90
69895;DHT22;57172;52.034;5.090;2023-11-21T01:03:46;8.20;97.90
69895;DHT22;57172;52.034;5.090;2023-11-21T01:06:13;8.20;97.90
69895;DHT22;57172;52.034;5.090;2023-11-21T01:08:43;8.20;97.80
69895;DHT22;57172;52.034;5.090;2023-11-21T01:11:11;8.20;97.80
69895;DHT22;57172;52.034;5.090;2023-11-21T01:13:40;8.10;97.70
69895;DHT22;57172;52.034;5.090;2023-11-21T01:16:07;8.10;97.70
69895;DHT22;57172;52.034;5.090;2023-11-21T01:18:35;8.10;97.70
69895;DHT22;57172;52.034;5.090;2023-11-21T01:21:02;8.10;97.70
69895;DHT22;57172;52.034;5.090;2023-11-21T01:23:30;8.10;97.60
69895;DHT22;57172;52.034;5.090;2023-11-21T01:25:57;8.10;97.30
69895;DHT22;57172;52.034;5.090;2023-11-21T01:28:24;8.10;97.10
69895;DHT22;57172;52.034;5.090;2023-11-21T01:30:51;8.00;97.00
69895;DHT22;57172;52.034;5.090;2023-11-21T01:33:19;8.00;96.90
69895;DHT22;57172;52.034;5.090;2023-11-21T01:35:46;8.00;96.70
69895;DHT22;57172;52.034;5.090;2023-11-21T01:38:13;8.00;96.80
69895;DHT22;57172;52.034;5.090;2023-11-21T01:40:42;8.00;96.90
69895;DHT22;57172;52.034;5.090;2023-11-21T01:43:08;7.90;96.90
69895;DHT22;57172;52.034;5.090;2023-11-21T01:45:36;7.90;96.80
69895;DHT22;57172;52.034;5.090;2023-11-21T01:48:03;7.90;96.50
69895;DHT22;57172;52.034;5.090;2023-11-21T01:50:31;7.90;96.60
69895;DHT22;57172;52.034;5.090;2023-11-21T01:52:58;7.90;96.50
69895;DHT22;57172;52.034;5.090;2023-11-21T01:55:25;7.90;96.50
69895;DHT22;57172;52.034;5.090;2023-11-21T01:57:58;7.90;96.90
69895;DHT22;57172;52.034;5.090;2023-11-21T02:00:25;7.90;97.50
69895;DHT22;57172;52.034;5.090;2023-11-21T02:02:55;7.90;98.10
69895;DHT22;57172;52.034;5.090;2023-11-21T02:05:23;8.00;98.60
69895;DHT22;57172;52.034;5.090;2023-11-21T02:07:50;8.10;99.00
69895;DHT22;57172;52.034;5.090;2023-11-21T02:10:19;8.10;99.30
69895;DHT22;57172;52.034;5.090;2023-11-21T02:12:51;8.20;99.40
69895;DHT22;57172;52.034;5.090;2023-11-21T02:15:19;8.20;99.50
69895;DHT22;57172;52.034;5.090;2023-11-21T02:17:50;8.30;99.70
69895;DHT22;57172;52.034;5.090;2023-11-21T02:20:21;8.30;99.70
69895;DHT22;57172;52.034;5.090;2023-11-21T02:22:56;8.30;99.80
69895;DHT22;57172;52.034;5.090;2023-11-21T02:25:31;8.40;99.90
69895;DHT22;57172;52.034;5.090;2023-11-21T02:28:02;8.40;99.90
69895;DHT22;57172;52.034;5.090;2023-11-21T02:30:30;8.50;99.90
69895;DHT22;57172;52.034;5.090;2023-11-21T02:33:01;8.50;99.90
69895;DHT22;57172;52.034;5.090;2023-11-21T02:35:30;8.60;99.90
69895;DHT22;57172;52.034;5.090;2023-11-21T02:37:58;8.60;99.90
69895;DHT22;57172;52.034;5.090;2023-11-21T02:40:25;8.60;99.90
69895;DHT22;57172;52.034;5.090;2023-11-21T02:42:53;8.70;99.90
69895;DHT22;57172;52.034;5.090;2023-11-21T02:45:21;8.70;99.90
69895;DHT22;57172;52.034;5.090;2023-11-21T02:47:49;8.70;99.90
69895;DHT22;57172;52.034;5.090;2023-11-21T02:50:16;8.70;99.90
69895;DHT22;57172;52.034;5.090;2023-11-21T02:52:45;8.80;99.90
69895;DHT22;57172;52.034;5.090;2023-11-21T02:55:13;8.80;99.90
69895;DHT22;57172;52.034;5.090;2023-11-21T02:57:40;8.90;99.90
69895;DHT22;57172;52.034;5.090;2023-11-21T03:00:09;9.00;99.90
69895;DHT22;57172;52.034;5.090;2023-11-21T03:02:41;9.00;99.90
69895;DHT22;57172;52.034;5.090;2023-11-21T03:05:09;9.00;99.90
69895;DHT22;57172;52.034;5.090;2023-11-21T03:07:38;9.00;99.90
69895;DHT22;57172;52.034;5.090;2023-11-21T03:10:09;9.00;99.90
69895;DHT22;57172;52.034;5.090;2023-11-21T03:12:41;9.00;99.90
69895;DHT22;57172;52.034;5.090;2023-11-21T03:15:09;9.10;99.90
69895;DHT22;57172;52.034;5.090;2023-11-21T03:17:36;9.10;99.90
69895;DHT22;57172;52.034;5.090;2023-11-21T03:20:04;9.10;99.90
69895;DHT22;57172;52.034;5.090;2023-11-21T03:22:32;9.10;99.90
69895;DHT22;57172;52.034;5.090;2023-11-21T03:24:59;9.10;99.90
69895;DHT22;57172;52.034;5.090;2023-11-21T03:27:26;9.20;99.90
69895;DHT22;57172;52.034;5.090;2023-11-21T03:29:53;9.20;99.90
69895;DHT22;57172;52.034;5.090;2023-11-21T03:32:21;9.20;99.90
69895;DHT22;57172;52.034;5.090;2023-11-21T03:34:56;9.20;99.90
69895;DHT22;57172;52.034;5.090;2023-11-21T03:37:24;9.10;99.90
69895;DHT22;57172;52.034;5.090;2023-11-21T03:39:51;9.10;99.90
69895;DHT22;57172;52.034;5.090;2023-11-21T03:42:18;9.10;99.90
69895;DHT22;57172;52.034;5.090;2023-11-21T03:44:45;9.10;99.90
69895;DHT22;57172;52.034;5.090;2023-11-21T03:47:13;9.10;99.90
69895;DHT22;57172;52.034;5.090;2023-11-21T03:49:40;9.10;99.90
69895;DHT22;57172;52.034;5.090;2023-11-21T03:52:07;9.20;99.90
69895;DHT22;57172;52.034;5.090;2023-11-21T03:54:34;9.20;99.90
69895;DHT22;57172;52.034;5.090;2023-11-21T03:57:01;9.20;99.90
69895;DHT22;57172;52.034;5.090;2023-11-21T03:59:28;9.10;99.90
69895;DHT22;57172;52.034;5.090;2023-11-21T04:01:56;9.20;99.90
69895;DHT22;57172;52.034;5.090;2023-11-21T04:04:23;9.20;99.90
69895;DHT22;57172;52.034;5.090;2023-11-21T04:06:51;9.20;99.90
69895;DHT22;57172;52.034;5.090;2023-11-21T04:09:20;9.20;99.90
69895;DHT22;57172;52.034;5.090;2023-11-21T04:11:49;9.20;99.90
69895;DHT22;57172;52.034;5.090;2023-11-21T04:14:15;9.20;99.90
69895;DHT22;57172;52.034;5.090;2023-11-21T04:16:43;9.20;99.90
69895;DHT22;57172;52.034;5.090;2023-11-21T04:19:10;9.20;99.90
69895;DHT22;57172;52.034;5.090;2023-11-21T04:21:42;9.20;99.90
69895;DHT22;57172;52.034;5.090;2023-11-21T04:24:09;9.30;99.90
69895;DHT22;57172;52.034;5.090;2023-11-21T04:26:36;9.20;99.90
69895;DHT22;57172;52.034;5.090;2023-11-21T04:29:03;9.20;99.90
69895;DHT22;57172;52.034;5.090;2023-11-21T04:31:31;9.30;99.90
69895;DHT22;57172;52.034;5.090;2023-11-21T04:33:59;9.30;99.90
69895;DHT22;57172;52.034;5.090;2023-11-21T04:36:26;9.30;99.90
69895;DHT22;57172;52.034;5.090;2023-11-21T04:38:53;9.30;99.90
69895;DHT22;57172;52.034;5.090;2023-11-21T04:41:20;9.40;99.90
69895;DHT22;57172;52.034;5.090;2023-11-21T04:43:47;9.40;99.90
69895;DHT22;57172;52.034;5.090;2023-11-21T04:46:14;9.40;99.90
69895;DHT22;57172;52.034;5.090;2023-11-21T04:48:41;9.40;99.90
69895;DHT22;57172;52.034;5.090;2023-11-21T04:51:08;9.50;99.90
69895;DHT22;57172;52.034;5.090;2023-11-21T04:53:34;9.50;99.90
69895;DHT22;57172;52.034;5.090;2023-11-21T04:56:01;9.60;99.90
69895;DHT22;57172;52.034;5.090;2023-11-21T04:58:30;9.60;99.90
69895;DHT22;57172;52.034;5.090;2023-11-21T05:00:57;9.60;99.90
69895;DHT22;57172;52.034;5.090;2023-11-21T05:03:25;9.70;99.90
69895;DHT22;57172;52.034;5.090;2023-11-21T05:05:53;9.70;99.90
69895;DHT22;57172;52.034;5.090;2023-11-21T05:08:20;9.70;99.90
69895;DHT22;57172;52.034;5.090;2023-11-21T05:10:49;9.70;99.90
69895;DHT22;57172;52.034;5.090;2023-11-21T05:13:16;9.70;99.90
69895;DHT22;57172;52.034;5.090;2023-11-21T05:15:44;9.70;99.90
69895;DHT22;57172;52.034;5.090;2023-11-21T05:18:11;9.70;99.90
69895;DHT22;57172;52.034;5.090;2023-11-21T05:20:40;9.70;99.90
69895;DHT22;57172;52.034;5.090;2023-11-21T05:23:07;9.70;99.90
69895;DHT22;57172;52.034;5.090;2023-11-21T05:25:34;9.70;99.90
69895;DHT22;57172;52.034;5.090;2023-11-21T05:28:06;9.70;99.90
69895;DHT22;57172;52.034;5.090;2023-11-21T05:30:33;9.70;99.90
69895;DHT22;57172;52.034;5.090;2023-11-21T05:33:00;9.70;99.90
69895;DHT22;57172;52.034;5.090;2023-11-21T05:35:27;9.70;99.90
69895;DHT22;57172;52.034;5.090;2023-11-21T05:37:54;9.70;99.90
69895;DHT22;57172;52.034;5.090;2023-11-21T05:40:21;9.70;99.90
69895;DHT22;57172;52.034;5.090;2023-11-21T05:42:49;9.70;99.90
69895;DHT22;57172;52.034;5.090;2023-11-21T05:45:18;9.70;99.90
69895;DHT22;57172;52.034;5.090;2023-11-21T05:47:46;9.70;99.90
69895;DHT22;57172;52.034;5.090;2023-11-21T05:50:15;9.70;99.90
69895;DHT22;57172;52.034;5.090;2023-11-21T05:52:44;9.80;99.90
69895;DHT22;57172;52.034;5.090;2023-11-21T05:55:11;9.80;99.90
69895;DHT22;57172;52.034;5.090;2023-11-21T05:57:39;9.80;99.90
69895;DHT22;57172;52.034;5.090;2023-11-21T06:00:08;9.80;99.90
69895;DHT22;57172;52.034;5.090;2023-11-21T06:02:41;9.80;99.90
69895;DHT22;57172;52.034;5.090;2023-11-21T06:05:10;9.90;99.90
69895;DHT22;57172;52.034;5.090;2023-11-21T06:07:37;9.90;99.90
69895;DHT22;57172;52.034;5.090;2023-11-21T06:10:05;9.90;99.90
69895;DHT22;57172;52.034;5.090;2023-11-21T06:12:35;9.90;99.90
69895;DHT22;57172;52.034;5.090;2023-11-21T06:15:04;10.00;99.90
69895;DHT22;57172;52.034;5.090;2023-11-21T06:17:31;10.00;99.90
69895;DHT22;57172;52.034;5.090;2023-11-21T06:19:59;10.00;99.90
69895;DHT22;57172;52.034;5.090;2023-11-21T06:22:26;10.00;99.90
69895;DHT22;57172;52.034;5.090;2023-11-21T06:24:53;10.00;99.90
69895;DHT22;57172;52.034;5.090;2023-11-21T06:27:19;9.90;99.90
69895;DHT22;57172;52.034;5.090;2023-11-21T06:29:47;9.90;99.90
69895;DHT22;57172;52.034;5.090;2023-11-21T06:32:14;10.00;99.90
69895;DHT22;57172;52.034;5.090;2023-11-21T06:34:43;10.00;99.90
69895;DHT22;57172;52.034;5.090;2023-11-21T06:37:10;10.00;99.90
69895;DHT22;57172;52.034;5.090;2023-11-21T06:39:37;10.00;99.90
69895;DHT22;57172;52.034;5.090;2023-11-21T06:42:05;10.00;99.90
69895;DHT22;57172;52.034;5.090;2023-11-21T06:44:32;10.00;99.90
69895;DHT22;57172;52.034;5.090;2023-11-21T06:47:00;10.00;99.90
69895;DHT22;57172;52.034;5.090;2023-11-21T06:49:27;10.00;99.90
69895;DHT22;57172;52.034;5.090;2023-11-21T06:51:54;10.00;99.90
69895;DHT22;57172;52.034;5.090;2023-11-21T06:54:21;9.90;99.90
69895;DHT22;57172;52.034;5.090;2023-11-21T06:56:49;10.00;99.90
69895;DHT22;57172;52.034;5.090;2023-11-21T06:59:16;10.00;99.90
69895;DHT22;57172;52.034;5.090;2023-11-21T07:01:43;10.00;99.90
69895;DHT22;57172;52.034;5.090;2023-11-21T07:04:11;10.10;99.90
69895;DHT22;57172;52.034;5.090;2023-11-21T07:06:38;10.10;99.90
69895;DHT22;57172;52.034;5.090;2023-11-21T07:09:05;10.10;99.90
69895;DHT22;57172;52.034;5.090;2023-11-21T07:11:32;10.10;99.90
69895;DHT22;57172;52.034;5.090;2023-11-21T07:13:59;10.20;99.90
69895;DHT22;57172;52.034;5.090;2023-11-21T07:16:26;10.20;99.90
69895;DHT22;57172;52.034;5.090;2023-11-21T07:18:53;10.20;99.90
69895;DHT22;57172;52.034;5.090;2023-11-21T07:21:21;10.20;99.90
69895;DHT22;57172;52.034;5.090;2023-11-21T07:23:48;10.30;99.90
69895;DHT22;57172;52.034;5.090;2023-11-21T07:26:15;10.30;99.90
69895;DHT22;57172;52.034;5.090;2023-11-21T07:28:42;10.30;99.90
69895;DHT22;57172;52.034;5.090;2023-11-21T07:31:09;10.40;99.90
69895;DHT22;57172;52.034;5.090;2023-11-21T07:33:37;10.40;99.90
69895;DHT22;57172;52.034;5.090;2023-11-21T07:36:04;10.40;99.90
69895;DHT22;57172;52.034;5.090;2023-11-21T07:38:31;10.40;99.90
69895;DHT22;57172;52.034;5.090;2023-11-21T07:41:00;10.50;99.90
69895;DHT22;57172;52.034;5.090;2023-11-21T07:43:27;10.50;99.90
69895;DHT22;57172;52.034;5.090;2023-11-21T07:46:05;10.60;99.90
69895;DHT22;57172;52.034;5.090;2023-11-21T07:48:33;10.60;99.90
69895;DHT22;57172;52.034;5.090;2023-11-21T07:51:02;10.60;99.90
69895;DHT22;57172;52.034;5.090;2023-11-21T07:53:30;10.70;99.90
69895;DHT22;57172;52.034;5.090;2023-11-21T07:56:04;10.70;99.90
69895;DHT22;57172;52.034;5.090;2023-11-21T07:58:32;10.70;99.90
69895;DHT22;57172;52.034;5.090;2023-11-21T08:01:03;10.70;99.90
69895;DHT22;57172;52.034;5.090;2023-11-21T08:03:30;10.80;99.90
69895;DHT22;57172;52.034;5.090;2023-11-21T08:05:58;10.80;99.90
69895;DHT22;57172;52.034;5.090;2023-11-21T08:08:26;10.80;99.90
69895;DHT22;57172;52.034;5.090;2023-11-21T08:10:54;10.80;99.90
69895;DHT22;57172;52.034;5.090;2023-11-21T08:13:27;10.90;99.90
69895;DHT22;57172;52.034;5.090;2023-11-21T08:15:56;10.90;99.90
69895;DHT22;57172;52.034;5.090;2023-11-21T08:18:25;11.00;99.90
69895;DHT22;57172;52.034;5.090;2023-11-21T08:20:52;11.00;99.90
69895;DHT22;57172;52.034;5.090;2023-11-21T08:23:19;11.00;99.90
69895;DHT22;57172;52.034;5.090;2023-11-21T08:25:46;11.00;99.90
69895;DHT22;57172;52.034;5.090;2023-11-21T08:28:13;11.00;99.90
69895;DHT22;57172;52.034;5.090;2023-11-21T08:30:43;11.10;99.90
69895;DHT22;57172;52.034;5.090;2023-11-21T08:33:10;11.10;99.90
69895;DHT22;57172;52.034;5.090;2023-11-21T08:35:40;11.10;99.90
69895;DHT22;57172;52.034;5.090;2023-11-21T08:38:07;11.20;99.90
69895;DHT22;57172;52.034;5.090;2023-11-21T08:40:35;11.20;99.90
69895;DHT22;57172;52.034;5.090;2023-11-21T08:43:02;11.30;99.90
69895;DHT22;57172;52.034;5.090;2023-11-21T08:45:31;11.30;99.90
69895;DHT22;57172;52.034;5.090;2023-11-21T08:48:01;11.30;99.90
69895;DHT22;57172;52.034;5.090;2023-11-21T08:50:28;11.30;99.90
69895;DHT22;57172;52.034;5.090;2023-11-21T08:52:55;11.40;99.90
69895;DHT22;57172;52.034;5.090;2023-11-21T08:55:22;11.40;99.90
69895;DHT22;57172;52.034;5.090;2023-11-21T08:57:49;11.40;99.90
69895;DHT22;57172;52.034;5.090;2023-11-21T09:00:17;11.50;99.90
69895;DHT22;57172;52.034;5.090;2023-11-21T09:02:46;11.50;99.90
69895;DHT22;57172;52.034;5.090;2023-11-21T09:05:14;11.60;99.90
69895;DHT22;57172;52.034;5.090;2023-11-21T09:07:42;11.70;99.90
69895;DHT22;57172;52.034;5.090;2023-11-21T09:10:09;11.90;99.90
69895;DHT22;57172;52.034;5.090;2023-11-21T09:12:37;11.90;99.90
69895;DHT22;57172;52.034;5.090;2023-11-21T09:15:06;12.00;99.90
69895;DHT22;57172;52.034;5.090;2023-11-21T09:17:34;12.10;99.90
69895;DHT22;57172;52.034;5.090;2023-11-21T09:20:02;12.20;99.90
69895;DHT22;57172;52.034;5.090;2023-11-21T09:22:30;12.30;99.90
69895;DHT22;57172;52.034;5.090;2023-11-21T09:24:58;12.30;99.90
69895;DHT22;57172;52.034;5.090;2023-11-21T09:27:25;12.30;99.90
69895;DHT22;57172;52.034;5.090;2023-11-21T09:29:52;12.30;99.90
69895;DHT22;57172;52.034;5.090;2023-11-21T09:32:20;12.30;99.90
69895;DHT22;57172;52.034;5.090;2023-11-21T09:34:51;12.30;99.90
69895;DHT22;57172;52.034;5.090;2023-11-21T09:37:20;12.20;99.90
69895;DHT22;57172;52.034;5.090;2023-11-21T09:39:47;12.20;99.90
69895;DHT22;57172;52.034;5.090;2023-11-21T09:42:23;12.20;99.90
69895;DHT22;57172;52.034;5.090;2023-11-21T09:47:28;12.10;99.90
69895;DHT22;57172;52.034;5.090;2023-11-21T09:49:56;12.10;99.90
69895;DHT22;57172;52.034;5.090;2023-11-21T09:52:28;12.10;99.90
69895;DHT22;57172;52.034;5.090;2023-11-21T09:54:55;12.10;99.80
69895;DHT22;57172;52.034;5.090;2023-11-21T09:57:25;12.00;99.90
69895;DHT22;57172;52.034;5.090;2023-11-21T09:59:53;12.10;99.90
69895;DHT22;57172;52.034;5.090;2023-11-21T10:02:27;12.10;99.90
69895;DHT22;57172;52.034;5.090;2023-11-21T10:04:59;12.10;99.90
69895;DHT22;57172;52.034;5.090;2023-11-21T10:07:28;12.20;99.90
69895;DHT22;57172;52.034;5.090;2023-11-21T10:09:59;12.20;99.90
69895;DHT22;57172;52.034;5.090;2023-11-21T10:12:27;12.30;99.90
69895;DHT22;57172;52.034;5.090;2023-11-21T10:14:58;12.30;99.90
69895;DHT22;57172;52.034;5.090;2023-11-21T10:17:28;12.30;99.90
69895;DHT22;57172;52.034;5.090;2023-11-21T10:20:04;12.30;99.90
69895;DHT22;57172;52.034;5.090;2023-11-21T10:22:40;12.30;99.70
69895;DHT22;57172;52.034;5.090;2023-11-21T10:25:09;12.20;99.60
69895;DHT22;57172;52.034;5.090;2023-11-21T10:27:39;12.20;99.50
69895;DHT22;57172;52.034;5.090;2023-11-21T10:30:10;12.20;99.40
69895;DHT22;57172;52.034;5.090;2023-11-21T10:32:39;12.10;99.00
69895;DHT22;57172;52.034;5.090;2023-11-21T10:35:08;12.10;98.80
69895;DHT22;57172;52.034;5.090;2023-11-21T10:37:38;12.00;99.00
69895;DHT22;57172;52.034;5.090;2023-11-21T10:40:09;12.00;99.30
69895;DHT22;57172;52.034;5.090;2023-11-21T10:42:39;12.00;99.30
69895;DHT22;57172;52.034;5.090;2023-11-21T10:45:08;11.90;99.30
69895;DHT22;57172;52.034;5.090;2023-11-21T10:47:42;11.90;99.00
69895;DHT22;57172;52.034;5.090;2023-11-21T10:50:10;11.90;98.70
69895;DHT22;57172;52.034;5.090;2023-11-21T10:52:41;11.80;98.80
69895;DHT22;57172;52.034;5.090;2023-11-21T10:55:20;11.80;98.80
69895;DHT22;57172;52.034;5.090;2023-11-21T10:57:50;11.80;99.40
69895;DHT22;57172;52.034;5.090;2023-11-21T11:00:19;11.80;99.90
69895;DHT22;57172;52.034;5.090;2023-11-21T11:02:51;11.80;99.90
69895;DHT22;57172;52.034;5.090;2023-11-21T11:05:20;11.90;99.80
69895;DHT22;57172;52.034;5.090;2023-11-21T11:07:50;11.90;99.60
69895;DHT22;57172;52.034;5.090;2023-11-21T11:10:21;11.90;99.30
69895;DHT22;57172;52.034;5.090;2023-11-21T11:12:57;11.90;99.30
69895;DHT22;57172;52.034;5.090;2023-11-21T11:15:25;11.80;99.10
69895;DHT22;57172;52.034;5.090;2023-11-21T11:17:54;11.80;99.10
69895;DHT22;57172;52.034;5.090;2023-11-21T11:20:32;11.80;99.10
69895;DHT22;57172;52.034;5.090;2023-11-21T11:34:33;11.90;98.80
69895;DHT22;57172;52.034;5.090;2023-11-21T11:37:08;11.90;98.90
69895;DHT22;57172;52.034;5.090;2023-11-21T11:39:37;11.90;98.80
69895;DHT22;57172;52.034;5.090;2023-11-21T11:42:13;11.90;98.50
69895;DHT22;57172;52.034;5.090;2023-11-21T11:47:35;11.80;98.40
69895;DHT22;57172;52.034;5.090;2023-11-21T11:50:09;11.80;98.00
69895;DHT22;57172;52.034;5.090;2023-11-21T11:52:50;11.70;98.40
69895;DHT22;57172;52.034;5.090;2023-11-21T11:55:19;11.70;98.20
69895;DHT22;57172;52.034;5.090;2023-11-21T11:57:54;11.70;98.50
69895;DHT22;57172;52.034;5.090;2023-11-21T12:03:01;11.70;98.40
69895;DHT22;57172;52.034;5.090;2023-11-21T12:05:32;11.70;99.10
69895;DHT22;57172;52.034;5.090;2023-11-21T12:08:04;11.70;98.80
69895;DHT22;57172;52.034;5.090;2023-11-21T12:10:36;11.70;99.00
69895;DHT22;57172;52.034;5.090;2023-11-21T12:13:08;11.80;99.10
69895;DHT22;57172;52.034;5.090;2023-11-21T12:15:37;11.80;99.50
69895;DHT22;57172;52.034;5.090;2023-11-21T12:18:06;11.90;99.40
69895;DHT22;57172;52.034;5.090;2023-11-21T12:20:33;11.90;99.70
69895;DHT22;57172;52.034;5.090;2023-11-21T12:23:06;12.00;99.90
69895;DHT22;57172;52.034;5.090;2023-11-21T12:25:36;12.10;99.60
69895;DHT22;57172;52.034;5.090;2023-11-21T12:28:03;12.10;99.70
69895;DHT22;57172;52.034;5.090;2023-11-21T12:30:34;12.20;99.30
69895;DHT22;57172;52.034;5.090;2023-11-21T12:33:05;12.20;99.00
69895;DHT22;57172;52.034;5.090;2023-11-21T12:35:35;12.20;98.50
69895;DHT22;57172;52.034;5.090;2023-11-21T12:38:04;12.10;98.00
69895;DHT22;57172;52.034;5.090;2023-11-21T12:40:36;12.10;98.00
69895;DHT22;57172;52.034;5.090;2023-11-21T12:43:03;12.10;98.20
69895;DHT22;57172;52.034;5.090;2023-11-21T12:45:31;12.10;98.10
69895;DHT22;57172;52.034;5.090;2023-11-21T12:48:05;12.10;98.10
69895;DHT22;57172;52.034;5.090;2023-11-21T12:50:38;12.10;98.00
69895;DHT22;57172;52.034;5.090;2023-11-21T12:53:10;12.00;98.10
69895;DHT22;57172;52.034;5.090;2023-11-21T12:55:43;12.00;97.90
69895;DHT22;57172;52.034;5.090;2023-11-21T12:58:17;12.00;97.70
69895;DHT22;57172;52.034;5.090;2023-11-21T13:00:48;11.90;97.60
69895;DHT22;57172;52.034;5.090;2023-11-21T13:03:16;11.90;97.70
69895;DHT22;57172;52.034;5.090;2023-11-21T13:05:49;11.90;97.80
69895;DHT22;57172;52.034;5.090;2023-11-21T13:08:22;11.90;98.30
69895;DHT22;57172;52.034;5.090;2023-11-21T13:10:53;12.00;98.80
69895;DHT22;57172;52.034;5.090;2023-11-21T13:13:23;12.10;99.20
69895;DHT22;57172;52.034;5.090;2023-11-21T13:15:56;12.10;99.10
69895;DHT22;57172;52.034;5.090;2023-11-21T13:18:24;12.20;99.80
69895;DHT22;57172;52.034;5.090;2023-11-21T13:21:07;12.40;99.90
69895;DHT22;57172;52.034;5.090;2023-11-21T13:23:41;12.50;99.90
69895;DHT22;57172;52.034;5.090;2023-11-21T13:26:09;12.60;99.10
69895;DHT22;57172;52.034;5.090;2023-11-21T13:28:36;12.60;98.30
69895;DHT22;57172;52.034;5.090;2023-11-21T13:31:05;12.60;97.70
69895;DHT22;57172;52.034;5.090;2023-11-21T13:33:49;12.60;97.30
69895;DHT22;57172;52.034;5.090;2023-11-21T13:36:23;12.50;96.90
69895;DHT22;57172;52.034;5.090;2023-11-21T13:38:51;12.50;96.60
69895;DHT22;57172;52.034;5.090;2023-11-21T13:41:21;12.40;96.50
69895;DHT22;57172;52.034;5.090;2023-11-21T13:43:58;12.40;96.40
69895;DHT22;57172;52.034;5.090;2023-11-21T13:46:33;12.30;96.30
69895;DHT22;57172;52.034;5.090;2023-11-21T13:49:04;12.30;96.30
69895;DHT22;57172;52.034;5.090;2023-11-21T13:51:36;12.30;96.40
69895;DHT22;57172;52.034;5.090;2023-11-21T13:54:15;12.20;96.50
69895;DHT22;57172;52.034;5.090;2023-11-21T13:56:42;12.20;95.90
69895;DHT22;57172;52.034;5.090;2023-11-21T13:59:12;12.10;95.80
69895;DHT22;57172;52.034;5.090;2023-11-21T14:01:50;12.10;96.30
69895;DHT22;57172;52.034;5.090;2023-11-21T14:04:27;12.00;96.10
69895;DHT22;57172;52.034;5.090;2023-11-21T14:06:57;12.00;96.50
69895;DHT22;57172;52.034;5.090;2023-11-21T14:09:25;12.00;96.90
69895;DHT22;57172;52.034;5.090;2023-11-21T14:11:59;12.00;96.60
69895;DHT22;57172;52.034;5.090;2023-11-21T14:14:29;11.90;96.30
69895;DHT22;57172;52.034;5.090;2023-11-21T14:16:56;11.80;95.80
69895;DHT22;57172;52.034;5.090;2023-11-21T14:19:25;11.80;95.90
69895;DHT22;57172;52.034;5.090;2023-11-21T14:21:59;11.70;96.40
69895;DHT22;57172;52.034;5.090;2023-11-21T14:24:27;11.70;96.60
69895;DHT22;57172;52.034;5.090;2023-11-21T14:26:56;11.70;96.50
69895;DHT22;57172;52.034;5.090;2023-11-21T14:29:23;11.70;96.70
69895;DHT22;57172;52.034;5.090;2023-11-21T14:31:50;11.60;96.50
69895;DHT22;57172;52.034;5.090;2023-11-21T14:34:20;11.60;97.10
69895;DHT22;57172;52.034;5.090;2023-11-21T14:36:50;11.60;97.20
69895;DHT22;57172;52.034;5.090;2023-11-21T14:39:17;11.60;96.90
69895;DHT22;57172;52.034;5.090;2023-11-21T14:41:53;11.60;97.00
69895;DHT22;57172;52.034;5.090;2023-11-21T14:44:22;11.50;96.70
69895;DHT22;57172;52.034;5.090;2023-11-21T14:46:53;11.50;96.70
69895;DHT22;57172;52.034;5.090;2023-11-21T14:49:24;11.40;96.60
69895;DHT22;57172;52.034;5.090;2023-11-21T14:51:54;11.40;96.60
69895;DHT22;57172;52.034;5.090;2023-11-21T14:54:23;11.40;96.80
69895;DHT22;57172;52.034;5.090;2023-11-21T14:57:10;11.40;96.50
69895;DHT22;57172;52.034;5.090;2023-11-21T14:59:47;11.30;96.40
69895;DHT22;57172;52.034;5.090;2023-11-21T15:02:16;11.30;95.90
69895;DHT22;57172;52.034;5.090;2023-11-21T15:04:45;11.20;96.00
69895;DHT22;57172;52.034;5.090;2023-11-21T15:07:12;11.10;96.10
69895;DHT22;57172;52.034;5.090;2023-11-21T15:09:40;11.10;95.90
69895;DHT22;57172;52.034;5.090;2023-11-21T15:12:12;11.00;96.20
69895;DHT22;57172;52.034;5.090;2023-11-21T15:14:46;11.00;96.40
69895;DHT22;57172;52.034;5.090;2023-11-21T15:17:15;11.00;96.50
69895;DHT22;57172;52.034;5.090;2023-11-21T15:19:52;11.00;96.30
69895;DHT22;57172;52.034;5.090;2023-11-21T15:22:20;11.00;96.30
69895;DHT22;57172;52.034;5.090;2023-11-21T15:24:47;10.90;96.00
69895;DHT22;57172;52.034;5.090;2023-11-21T15:27:15;10.90;96.10
69895;DHT22;57172;52.034;5.090;2023-11-21T15:29:43;10.80;96.00
69895;DHT22;57172;52.034;5.090;2023-11-21T15:32:10;10.80;96.20
69895;DHT22;57172;52.034;5.090;2023-11-21T15:34:38;10.80;95.90
69895;DHT22;57172;52.034;5.090;2023-11-21T15:37:07;10.80;96.20
69895;DHT22;57172;52.034;5.090;2023-11-21T15:39:39;10.80;96.20
69895;DHT22;57172;52.034;5.090;2023-11-21T15:42:07;10.80;96.30
69895;DHT22;57172;52.034;5.090;2023-11-21T15:44:34;10.80;96.50
69895;DHT22;57172;52.034;5.090;2023-11-21T15:47:01;10.80;96.30
69895;DHT22;57172;52.034;5.090;2023-11-21T15:49:31;10.80;96.10
69895;DHT22;57172;52.034;5.090;2023-11-21T15:52:04;10.70;96.10
69895;DHT22;57172;52.034;5.090;2023-11-21T15:54:32;10.70;95.90
69895;DHT22;57172;52.034;5.090;2023-11-21T15:57:01;10.70;95.70
69895;DHT22;57172;52.034;5.090;2023-11-21T15:59:31;10.60;95.50
69895;DHT22;57172;52.034;5.090;2023-11-21T16:01:59;10.50;95.70
69895;DHT22;57172;52.034;5.090;2023-11-21T16:04:27;10.50;95.70
69895;DHT22;57172;52.034;5.090;2023-11-21T16:06:55;10.50;95.60
69895;DHT22;57172;52.034;5.090;2023-11-21T16:09:22;10.40;95.40